createdAt,value
2019-03-22T00:00:39.908Z,57.50
2019-03-22T00:01:39.919Z,60.60
2019-03-22T00:02:39.895Z,61.40
2019-03-22T00:03:39.897Z,60.70
2019-03-22T00:04:39.868Z,56.50
2019-03-22T00:05:39.845Z,56.30
2019-03-22T00:06:39.860Z,56.00
2019-03-22T00:07:39.857Z,53.90
2019-03-22T00:08:39.872Z,53.70
2019-03-22T00:09:39.809Z,57.00
2019-03-22T00:10:39.826Z,52.50
2019-03-22T00:11:39.799Z,53.30
2019-03-22T00:12:39.795Z,54.80
2019-03-22T00:13:39.786Z,52.40
2019-03-22T00:14:39.746Z,51.90
2019-03-22T00:15:39.733Z,53.50
2019-03-22T00:16:39.718Z,55.60
2019-03-22T00:17:39.712Z,53.90
2019-03-22T00:18:39.725Z,53.20
2019-03-22T00:19:39.729Z,54.80
2019-03-22T00:20:39.720Z,53.90
2019-03-22T00:21:39.688Z,54.30
2019-03-22T00:22:39.671Z,53.00
2019-03-22T00:23:39.647Z,54.20
2019-03-22T00:24:39.660Z,54.70
2019-03-22T00:25:39.623Z,55.30
2019-03-22T00:26:39.614Z,55.90
2019-03-22T00:27:39.623Z,59.90
2019-03-22T00:28:39.606Z,56.00
2019-03-22T00:29:39.601Z,56.20
2019-03-22T00:30:39.580Z,54.40
2019-03-22T00:31:39.598Z,53.50
2019-03-22T00:32:39.556Z,54.80
2019-03-22T00:33:39.545Z,54.00
2019-03-22T00:34:39.554Z,52.30
2019-03-22T00:35:39.538Z,53.60
2019-03-22T00:36:39.505Z,55.70
2019-03-22T00:37:39.499Z,54.30
2019-03-22T00:38:39.505Z,55.20
2019-03-22T00:39:39.494Z,52.00
2019-03-22T00:40:39.463Z,53.40
2019-03-22T00:41:39.459Z,57.90
2019-03-22T00:42:39.433Z,56.60
2019-03-22T00:43:39.436Z,57.70
2019-03-22T00:44:39.448Z,56.80
2019-03-22T00:45:39.408Z,60.30
2019-03-22T00:46:39.391Z,55.30
2019-03-22T00:47:39.451Z,57.60
2019-03-22T00:48:39.370Z,56.30
2019-03-22T00:49:39.390Z,54.10
2019-03-22T00:50:39.368Z,55.70
2019-03-22T00:51:39.360Z,58.10
2019-03-22T00:52:39.348Z,59.10
2019-03-22T00:53:40.300Z,57.30
2019-03-22T00:54:39.331Z,61.50
2019-03-22T00:55:39.294Z,57.10
2019-03-22T00:56:39.292Z,55.10
2019-03-22T00:57:39.277Z,55.70
2019-03-22T00:58:39.293Z,57.00
2019-03-22T00:59:39.297Z,55.70
2019-03-22T01:00:39.253Z,57.70
2019-03-22T01:01:39.245Z,58.10
2019-03-22T01:02:39.225Z,57.10
2019-03-22T01:04:58.235Z,60.20
2019-03-22T01:05:59.201Z,60.10
2019-03-22T01:06:59.188Z,59.80
2019-03-22T01:07:59.231Z,59.50
2019-03-22T01:08:59.161Z,60.60
2019-03-22T01:09:59.169Z,63.90
2019-03-22T01:10:59.149Z,58.70
2019-03-22T01:11:59.140Z,62.50
2019-03-22T01:12:59.136Z,59.50
2019-03-22T01:13:59.100Z,59.30
2019-03-22T01:14:59.122Z,61.20
2019-03-22T01:15:59.082Z,62.10
2019-03-22T01:16:59.069Z,58.30
2019-03-22T01:17:59.060Z,55.30
2019-03-22T01:18:59.055Z,55.30
2019-03-22T01:19:59.063Z,57.60
2019-03-22T01:20:59.041Z,56.30
2019-03-22T01:21:59.024Z,56.50
2019-03-22T01:22:59.004Z,56.30
2019-03-22T01:24:00.063Z,53.10
2019-03-22T01:24:59.013Z,54.10
2019-03-22T01:25:58.968Z,53.00
2019-03-22T01:26:58.999Z,55.10
2019-03-22T01:27:58.959Z,59.70
2019-03-22T01:28:58.943Z,56.50
2019-03-22T01:29:58.958Z,56.40
2019-03-22T01:30:58.925Z,58.00
2019-03-22T01:31:58.915Z,59.80
2019-03-22T01:32:58.898Z,60.40
2019-03-22T01:33:58.887Z,58.20
2019-03-22T01:34:58.904Z,61.80
2019-03-22T01:35:58.866Z,56.90
2019-03-22T01:36:58.857Z,57.50
2019-03-22T01:37:58.842Z,58.80
2019-03-22T01:38:58.839Z,60.00
2019-03-22T01:39:58.840Z,58.00
2019-03-22T01:40:58.831Z,62.10
2019-03-22T01:41:58.795Z,66.00
2019-03-22T01:42:58.798Z,62.10
2019-03-22T01:43:58.782Z,63.20
2019-03-22T01:44:58.781Z,61.10
2019-03-22T01:45:58.787Z,56.70
2019-03-22T01:46:58.737Z,58.40
2019-03-22T01:47:58.739Z,57.30
2019-03-22T01:48:58.746Z,58.60
2019-03-22T01:49:58.739Z,56.50
2019-03-22T01:50:58.715Z,55.60
2019-03-22T01:51:58.701Z,55.50
2019-03-22T01:52:58.847Z,55.50
2019-03-22T01:53:58.673Z,56.50
2019-03-22T01:54:58.694Z,58.20
2019-03-22T01:55:58.659Z,60.50
2019-03-22T01:56:58.639Z,62.10
2019-03-22T01:57:58.625Z,62.70
2019-03-22T01:58:58.622Z,60.50
2019-03-22T01:59:58.622Z,60.20
2019-03-22T02:00:58.610Z,59.60
2019-03-22T02:01:58.583Z,58.00
2019-03-22T02:02:58.575Z,61.30
2019-03-22T02:03:58.553Z,59.60
2019-03-22T02:04:58.607Z,62.00
2019-03-22T02:05:58.539Z,59.30
2019-03-22T02:06:58.536Z,65.70
2019-03-22T02:07:58.518Z,66.50
2019-03-22T02:08:58.501Z,67.80
2019-03-22T02:09:58.516Z,68.90
2019-03-22T02:10:58.503Z,68.80
2019-03-22T02:11:58.477Z,68.00
2019-03-22T02:12:58.463Z,76.40
2019-03-22T02:13:58.490Z,72.30
2019-03-22T02:14:58.473Z,69.70
2019-03-22T02:15:58.424Z,62.50
2019-03-22T02:16:58.408Z,61.20
2019-03-22T02:17:58.426Z,61.80
2019-03-22T02:18:58.397Z,61.50
2019-03-22T02:19:58.400Z,62.70
2019-03-22T02:20:58.368Z,58.60
2019-03-22T02:21:58.370Z,58.90
2019-03-22T02:22:58.351Z,63.50
2019-03-22T02:23:58.331Z,60.50
2019-03-22T02:24:58.348Z,60.90
2019-03-22T02:25:58.308Z,58.20
2019-03-22T02:26:58.310Z,58.80
2019-03-22T02:28:04.078Z,57.90
2019-03-22T02:28:58.278Z,57.20
2019-03-22T02:29:58.292Z,58.10
2019-03-22T02:30:58.289Z,54.80
2019-03-22T02:31:58.268Z,60.80
2019-03-22T02:32:58.251Z,60.60
2019-03-22T02:33:58.235Z,59.50
2019-03-22T02:34:58.229Z,60.80
2019-03-22T02:35:58.229Z,59.20
2019-03-22T02:36:58.193Z,63.50
2019-03-22T02:37:58.190Z,60.20
2019-03-22T02:38:58.179Z,60.70
2019-03-22T02:39:58.166Z,61.90
2019-03-22T02:40:58.197Z,61.20
2019-03-22T02:41:58.151Z,60.90
2019-03-22T02:42:58.134Z,60.10
2019-03-22T02:43:58.124Z,66.20
2019-03-22T02:44:58.165Z,62.60
2019-03-22T02:45:58.117Z,63.00
2019-03-22T02:46:58.087Z,67.60
2019-03-22T02:47:58.075Z,71.20
2019-03-22T02:48:58.077Z,70.30
2019-03-22T02:49:58.054Z,70.40
2019-03-22T02:50:58.052Z,71.20
2019-03-22T02:51:58.022Z,70.70
2019-03-22T02:52:58.015Z,74.30
2019-03-22T02:53:58.014Z,70.50
2019-03-22T02:54:58.003Z,74.90
2019-03-22T02:55:58.094Z,69.30
2019-03-22T02:56:58.028Z,69.80
2019-03-22T02:57:57.971Z,70.40
2019-03-22T02:58:59.452Z,76.60
2019-03-22T02:59:57.954Z,81.20
2019-03-22T03:00:57.985Z,65.30
2019-03-22T03:01:57.923Z,63.90
2019-03-22T03:02:57.923Z,65.70
2019-03-22T03:03:57.920Z,69.90
2019-03-22T03:06:07.129Z,61.80
2019-03-22T03:07:08.101Z,67.00
2019-03-22T03:08:08.072Z,67.40
2019-03-22T03:09:08.049Z,68.00
2019-03-22T03:10:08.031Z,68.20
2019-03-22T03:11:08.057Z,69.50
2019-03-22T03:12:08.017Z,80.90
2019-03-22T03:13:08.001Z,75.50
2019-03-22T03:14:07.995Z,75.40
2019-03-22T03:15:07.986Z,84.10
2019-03-22T03:16:08.002Z,102.30
2019-03-22T03:17:07.958Z,82.50
2019-03-22T03:18:07.947Z,94.40
2019-03-22T03:19:07.950Z,84.20
2019-03-22T03:20:07.935Z,83.70
2019-03-22T03:21:07.942Z,91.90
2019-03-22T03:22:07.902Z,85.80
2019-03-22T03:23:07.918Z,98.80
2019-03-22T03:24:07.872Z,101.00
2019-03-22T03:25:07.877Z,101.30
2019-03-22T03:26:07.872Z,104.50
2019-03-22T03:27:07.846Z,97.00
2019-03-22T03:28:07.837Z,97.10
2019-03-22T03:29:07.833Z,91.70
2019-03-22T03:30:07.830Z,86.80
2019-03-22T03:31:07.848Z,82.30
2019-03-22T03:32:07.797Z,91.80
2019-03-22T03:33:07.791Z,80.30
2019-03-22T03:34:07.831Z,94.50
2019-03-22T03:35:07.753Z,91.50
2019-03-22T03:36:07.773Z,81.00
2019-03-22T03:37:07.735Z,80.60
2019-03-22T03:38:07.731Z,84.80
2019-03-22T03:39:07.733Z,80.50
2019-03-22T03:40:07.735Z,80.70
2019-03-22T03:41:07.705Z,90.80
2019-03-22T03:42:07.684Z,89.20
2019-03-22T03:43:07.667Z,94.40
2019-03-22T03:44:07.658Z,92.10
2019-03-22T03:45:07.668Z,88.90
2019-03-22T03:46:07.686Z,92.00
2019-03-22T03:47:10.300Z,98.60
2019-03-22T03:48:07.618Z,85.40
2019-03-22T03:49:07.624Z,87.70
2019-03-22T03:50:07.599Z,87.90
2019-03-22T03:51:07.613Z,90.20
2019-03-22T03:52:07.583Z,83.40
2019-03-22T03:53:07.591Z,80.30
2019-03-22T03:54:07.557Z,77.50
2019-03-22T03:55:07.551Z,74.90
2019-03-22T03:56:07.554Z,85.20
2019-03-22T03:57:07.517Z,89.90
2019-03-22T03:58:07.561Z,86.20
2019-03-22T03:59:07.513Z,83.30
2019-03-22T04:00:07.496Z,83.70
2019-03-22T04:01:07.496Z,84.10
2019-03-22T04:02:07.483Z,83.90
2019-03-22T04:03:07.464Z,97.80
2019-03-22T04:04:07.469Z,94.10
2019-03-22T04:05:07.505Z,88.00
2019-03-22T04:06:07.449Z,87.30
2019-03-22T04:07:07.439Z,106.00
2019-03-22T04:08:07.394Z,102.70
2019-03-22T04:09:07.397Z,104.30
2019-03-22T04:10:07.426Z,95.20
2019-03-22T04:11:07.421Z,92.00
2019-03-22T04:12:07.366Z,84.30
2019-03-22T04:13:07.356Z,91.60
2019-03-22T04:14:07.370Z,97.20
2019-03-22T04:15:07.338Z,103.40
2019-03-22T04:16:07.352Z,103.00
2019-03-22T04:17:07.330Z,94.50
2019-03-22T04:18:07.310Z,101.20
2019-03-22T04:19:07.280Z,107.50
2019-03-22T04:20:07.270Z,105.80
2019-03-22T04:21:07.282Z,118.50
2019-03-22T04:22:07.250Z,96.00
2019-03-22T04:23:07.239Z,103.60
2019-03-22T04:24:07.238Z,91.00
2019-03-22T04:25:07.244Z,93.50
2019-03-22T04:26:07.228Z,90.70
2019-03-22T04:27:07.196Z,85.10
2019-03-22T04:28:07.190Z,81.70
2019-03-22T04:29:08.499Z,84.30
2019-03-22T04:30:07.173Z,92.20
2019-03-22T04:31:07.172Z,87.50
2019-03-22T04:32:07.144Z,83.00
2019-03-22T04:33:07.350Z,96.70
2019-03-22T04:34:07.122Z,79.80
2019-03-22T04:35:07.125Z,86.20
2019-03-22T04:36:07.110Z,89.50
2019-03-22T04:37:07.092Z,85.50
2019-03-22T04:38:07.089Z,80.90
2019-03-22T04:39:07.066Z,85.90
2019-03-22T04:40:07.068Z,80.70
2019-03-22T04:41:07.067Z,79.00
2019-03-22T04:42:07.043Z,86.30
2019-03-22T04:43:07.015Z,84.00
2019-03-22T04:44:07.012Z,86.20
2019-03-22T04:45:07.013Z,97.10
2019-03-22T04:46:06.988Z,86.90
2019-03-22T04:47:06.998Z,85.10
2019-03-22T04:48:06.981Z,82.30
2019-03-22T04:49:06.960Z,80.90
2019-03-22T04:50:06.944Z,87.10
2019-03-22T04:51:06.950Z,91.20
2019-03-22T04:52:06.952Z,94.10
2019-03-22T04:53:06.914Z,89.30
2019-03-22T04:54:06.919Z,96.50
2019-03-22T04:55:06.895Z,116.30
2019-03-22T04:56:06.888Z,102.10
2019-03-22T04:57:06.892Z,111.10
2019-03-22T04:58:06.865Z,108.30
2019-03-22T04:59:17.916Z,111.10
2019-03-22T05:00:06.869Z,104.30
2019-03-22T05:01:06.823Z,125.00
2019-03-22T05:02:06.828Z,115.40
2019-03-22T05:03:06.811Z,121.70
2019-03-22T05:04:06.794Z,125.10
2019-03-22T05:05:06.782Z,124.40
2019-03-22T05:07:15.996Z,109.00
2019-03-22T05:08:16.966Z,122.80
2019-03-22T05:09:16.982Z,131.40
2019-03-22T05:10:16.945Z,137.80
2019-03-22T05:11:16.969Z,153.70
2019-03-22T05:12:16.948Z,144.30
2019-03-22T05:13:16.917Z,116.10
2019-03-22T05:14:16.915Z,130.10
2019-03-22T05:15:16.889Z,140.90
2019-03-22T05:16:16.876Z,131.40
2019-03-22T05:17:16.900Z,134.60
2019-03-22T05:18:16.868Z,119.20
2019-03-22T05:19:16.878Z,121.30
2019-03-22T05:20:16.842Z,110.90
2019-03-22T05:21:16.836Z,125.60
2019-03-22T05:22:16.838Z,112.10
2019-03-22T05:23:16.813Z,122.30
2019-03-22T05:24:18.324Z,118.20
2019-03-22T05:25:16.780Z,124.30
2019-03-22T05:26:16.769Z,124.00
2019-03-22T05:27:16.787Z,141.90
2019-03-22T05:28:16.762Z,137.50
2019-03-22T05:29:16.751Z,138.90
2019-03-22T05:30:16.738Z,143.30
2019-03-22T05:31:16.734Z,144.10
2019-03-22T05:32:16.755Z,144.50
2019-03-22T05:33:16.717Z,135.70
2019-03-22T05:34:16.720Z,141.30
2019-03-22T05:35:16.676Z,147.60
2019-03-22T05:36:16.680Z,138.70
2019-03-22T05:37:16.713Z,131.30
2019-03-22T05:38:16.642Z,134.30
2019-03-22T05:39:16.634Z,140.70
2019-03-22T05:40:16.643Z,124.30
2019-03-22T05:41:16.622Z,115.30
2019-03-22T05:42:16.633Z,127.60
2019-03-22T05:43:16.601Z,117.40
2019-03-22T05:44:16.597Z,115.40
2019-03-22T05:45:16.600Z,128.80
2019-03-22T05:46:16.572Z,127.30
2019-03-22T05:47:16.583Z,131.60
2019-03-22T05:48:16.557Z,131.10
2019-03-22T05:49:16.524Z,126.40
2019-03-22T05:50:16.514Z,122.80
2019-03-22T05:51:16.520Z,111.80
2019-03-22T05:52:16.518Z,110.70
2019-03-22T05:53:16.478Z,111.00
2019-03-22T05:54:16.463Z,108.00
2019-03-22T05:55:16.462Z,125.10
2019-03-22T05:56:16.449Z,105.40
2019-03-22T05:57:16.472Z,118.20
2019-03-22T05:58:16.434Z,108.10
2019-03-22T05:59:16.417Z,130.30
2019-03-22T06:00:16.427Z,109.40
2019-03-22T06:01:16.396Z,116.70
2019-03-22T06:02:16.406Z,101.50
2019-03-22T06:03:16.380Z,106.30
2019-03-22T06:04:16.364Z,112.40
2019-03-22T06:05:16.366Z,110.50
2019-03-22T06:06:16.355Z,106.20
2019-03-22T06:07:16.380Z,106.20
2019-03-22T06:08:16.324Z,100.60
2019-03-22T06:09:16.334Z,106.10
2019-03-22T06:10:19.230Z,99.90
2019-03-22T06:11:16.343Z,99.30
2019-03-22T06:12:16.295Z,108.30
2019-03-22T06:13:16.330Z,104.70
2019-03-22T06:14:16.278Z,107.00
2019-03-22T06:15:16.247Z,102.30
2019-03-22T06:16:16.252Z,100.80
2019-03-22T06:17:16.226Z,105.30
2019-03-22T06:18:16.228Z,101.40
2019-03-22T06:19:16.209Z,109.30
2019-03-22T06:20:16.186Z,104.80
2019-03-22T06:21:16.192Z,96.70
2019-03-22T06:22:16.174Z,89.80
2019-03-22T06:23:16.175Z,88.00
2019-03-22T06:24:16.184Z,83.80
2019-03-22T06:25:16.173Z,88.40
2019-03-22T06:26:16.165Z,89.30
2019-03-22T06:27:16.122Z,91.00
2019-03-22T06:28:16.122Z,86.50
2019-03-22T06:29:16.103Z,88.10
2019-03-22T06:30:16.078Z,93.00
2019-03-22T06:31:16.081Z,84.50
2019-03-22T06:32:16.066Z,91.90
2019-03-22T06:33:16.088Z,84.80
2019-03-22T06:34:16.041Z,79.80
2019-03-22T06:35:16.030Z,81.70
2019-03-22T06:36:16.075Z,81.00
2019-03-22T06:37:16.041Z,78.90
2019-03-22T06:38:16.022Z,80.40
2019-03-22T06:39:15.997Z,80.60
2019-03-22T06:40:15.985Z,79.50
2019-03-22T06:41:15.977Z,82.90
2019-03-22T06:42:15.957Z,75.00
2019-03-22T06:43:15.983Z,74.40
2019-03-22T06:44:15.928Z,74.20
2019-03-22T06:45:15.981Z,73.00
2019-03-22T06:46:15.921Z,71.00
2019-03-22T06:47:15.952Z,72.50
2019-03-22T06:48:15.910Z,70.80
2019-03-22T06:49:15.875Z,69.20
2019-03-22T06:50:15.877Z,69.80
2019-03-22T06:51:15.865Z,71.10
2019-03-22T06:52:15.835Z,69.00
2019-03-22T06:53:15.879Z,68.80
2019-03-22T06:54:16.100Z,68.60
2019-03-22T06:55:15.909Z,66.90
2019-03-22T06:56:15.802Z,70.50
2019-03-22T06:57:15.799Z,66.90
2019-03-22T06:58:15.811Z,67.40
2019-03-22T06:59:15.762Z,68.40
2019-03-22T07:00:15.765Z,67.00
2019-03-22T07:01:15.759Z,62.60
2019-03-22T07:02:15.737Z,64.30
2019-03-22T07:03:15.770Z,64.80
2019-03-22T07:04:15.740Z,62.30
2019-03-22T07:05:15.955Z,59.00
2019-03-22T07:06:15.689Z,59.50
2019-03-22T07:08:36.478Z,56.30
2019-03-22T07:09:37.602Z,58.60
2019-03-22T07:10:37.472Z,56.00
2019-03-22T07:11:37.427Z,58.80
2019-03-22T07:12:37.417Z,58.40
2019-03-22T07:13:37.703Z,57.40
2019-03-22T07:14:37.368Z,58.90
2019-03-22T07:15:37.381Z,58.10
2019-03-22T07:16:37.376Z,55.40
2019-03-22T07:17:37.334Z,58.10
2019-03-22T07:18:37.417Z,55.20
2019-03-22T07:19:37.342Z,54.70
2019-03-22T07:20:37.303Z,56.60
2019-03-22T07:21:37.419Z,55.50
2019-03-22T07:22:37.271Z,52.40
2019-03-22T07:23:37.788Z,55.00
2019-03-22T07:24:37.271Z,53.40
2019-03-22T07:25:37.245Z,52.20
2019-03-22T07:26:37.232Z,54.50
2019-03-22T07:27:37.284Z,55.60
2019-03-22T07:28:37.223Z,54.40
2019-03-22T07:29:37.240Z,50.90
2019-03-22T07:30:37.213Z,54.50
2019-03-22T07:31:37.231Z,55.10
2019-03-22T07:32:37.163Z,53.60
2019-03-22T07:33:37.180Z,53.60
2019-03-22T07:34:37.199Z,53.30
2019-03-22T07:35:37.174Z,53.60
2019-03-22T07:36:37.145Z,55.60
2019-03-22T07:37:37.129Z,53.40
2019-03-22T07:38:37.112Z,50.90
2019-03-22T07:39:37.094Z,52.20
2019-03-22T07:40:37.140Z,49.60
2019-03-22T07:41:37.075Z,52.50
2019-03-22T07:42:37.079Z,49.60
2019-03-22T07:43:37.147Z,52.70
2019-03-22T07:44:37.031Z,48.80
2019-03-22T07:45:37.098Z,47.30
2019-03-22T07:46:37.053Z,46.10
2019-03-22T07:47:37.002Z,47.20
2019-03-22T07:48:37.019Z,46.10
2019-03-22T07:49:36.989Z,47.80
2019-03-22T07:50:36.955Z,45.00
2019-03-22T07:51:36.945Z,44.60
2019-03-22T07:52:36.953Z,45.10
2019-03-22T07:53:36.948Z,44.50
2019-03-22T07:54:36.921Z,43.90
2019-03-22T07:55:36.911Z,42.00
2019-03-22T07:56:36.897Z,42.30
2019-03-22T07:57:36.878Z,42.70
2019-03-22T07:58:36.895Z,38.60
2019-03-22T07:59:36.856Z,37.50
2019-03-22T08:00:36.854Z,38.10
2019-03-22T08:01:36.843Z,37.30
2019-03-22T08:02:36.830Z,33.80
2019-03-22T08:03:36.827Z,39.30
2019-03-22T08:04:36.816Z,37.20
2019-03-22T08:05:36.805Z,37.20
2019-03-22T08:06:36.779Z,36.00
2019-03-22T08:07:36.773Z,38.30
2019-03-22T08:08:36.774Z,37.60
2019-03-22T08:09:36.876Z,36.10
2019-03-22T08:10:36.778Z,36.50
2019-03-22T08:11:36.944Z,37.40
2019-03-22T08:12:36.738Z,35.90
2019-03-22T08:13:37.213Z,35.70
2019-03-22T08:14:37.656Z,37.10
2019-03-22T08:15:37.653Z,35.50
2019-03-22T08:16:36.721Z,35.60
2019-03-22T08:17:36.726Z,33.50
2019-03-22T08:18:37.752Z,35.00
2019-03-22T08:19:36.766Z,33.20
2019-03-22T08:20:38.759Z,33.60
2019-03-22T08:21:36.654Z,32.90
2019-03-22T08:22:36.629Z,33.10
2019-03-22T08:23:36.628Z,32.20
2019-03-22T08:24:36.570Z,32.30
2019-03-22T08:25:36.592Z,32.30
2019-03-22T08:26:36.584Z,33.10
2019-03-22T08:27:36.561Z,32.40
2019-03-22T08:28:37.448Z,32.10
2019-03-22T08:29:36.517Z,32.00
2019-03-22T08:30:42.921Z,31.00
2019-03-22T08:31:36.508Z,30.50
2019-03-22T08:32:36.543Z,30.20
2019-03-22T08:33:36.500Z,30.90
2019-03-22T08:34:36.464Z,30.50
2019-03-22T08:35:36.472Z,32.40
2019-03-22T08:36:36.447Z,29.70
2019-03-22T08:37:36.594Z,30.80
2019-03-22T08:38:36.590Z,30.40
2019-03-22T08:39:36.427Z,28.70
2019-03-22T08:40:36.399Z,31.30
2019-03-22T08:41:36.398Z,28.20
2019-03-22T08:42:36.374Z,31.90
2019-03-22T08:43:36.409Z,30.50
2019-03-22T08:44:36.356Z,29.30
2019-03-22T08:45:36.356Z,29.00
2019-03-22T08:46:36.496Z,29.20
2019-03-22T08:47:36.342Z,27.70
2019-03-22T08:48:36.333Z,26.30
2019-03-22T08:49:36.397Z,30.20
2019-03-22T08:50:36.293Z,29.10
2019-03-22T08:51:36.304Z,27.90
2019-03-22T08:52:36.417Z,28.70
2019-03-22T08:53:36.738Z,26.40
2019-03-22T08:54:38.297Z,25.50
2019-03-22T08:55:38.308Z,25.40
2019-03-22T08:56:36.440Z,28.40
2019-03-22T08:57:36.472Z,24.50
2019-03-22T08:58:37.014Z,23.90
2019-03-22T08:59:37.667Z,27.40
2019-03-22T09:00:39.581Z,26.00
2019-03-22T09:01:36.320Z,25.00
2019-03-22T09:02:36.311Z,25.20
2019-03-22T09:03:37.137Z,25.80
2019-03-22T09:04:36.577Z,23.50
2019-03-22T09:05:36.307Z,25.40
2019-03-22T09:06:36.567Z,28.50
2019-03-22T09:07:36.297Z,24.90
2019-03-22T09:09:45.857Z,22.40
2019-03-22T09:10:46.574Z,26.20
2019-03-22T09:11:46.413Z,25.90
2019-03-22T09:12:47.078Z,25.00
2019-03-22T09:13:46.520Z,24.80
2019-03-22T09:14:46.491Z,24.80
2019-03-22T09:15:46.482Z,25.30
2019-03-22T09:16:48.007Z,24.20
2019-03-22T09:17:46.420Z,26.30
2019-03-22T09:18:49.857Z,26.70
2019-03-22T09:19:46.251Z,27.20
2019-03-22T09:20:46.293Z,26.80
2019-03-22T09:21:46.189Z,24.10
2019-03-22T09:22:46.328Z,28.20
2019-03-22T09:23:46.506Z,27.90
2019-03-22T09:24:46.160Z,26.90
2019-03-22T09:25:46.176Z,27.80
2019-03-22T09:26:47.885Z,27.50
2019-03-22T09:27:46.225Z,26.30
2019-03-22T09:28:46.229Z,25.20
2019-03-22T09:29:47.404Z,28.00
2019-03-22T09:30:46.113Z,29.30
2019-03-22T09:31:46.136Z,28.90
2019-03-22T09:32:46.077Z,29.90
2019-03-22T09:33:46.085Z,27.70
2019-03-22T09:34:46.698Z,26.60
2019-03-22T09:35:46.343Z,29.80
2019-03-22T09:36:46.121Z,29.50
2019-03-22T09:37:46.070Z,27.60
2019-03-22T09:38:47.117Z,27.60
2019-03-22T09:39:46.016Z,28.10
2019-03-22T09:40:47.082Z,25.00
2019-03-22T09:41:46.013Z,27.20
2019-03-22T09:42:45.981Z,27.90
2019-03-22T09:43:46.310Z,24.80
2019-03-22T09:44:46.014Z,26.90
2019-03-22T09:45:45.973Z,26.10
2019-03-22T09:46:45.929Z,26.50
2019-03-22T09:47:45.945Z,28.90
2019-03-22T09:48:46.018Z,27.40
2019-03-22T09:49:46.640Z,27.10
2019-03-22T09:50:45.912Z,28.20
2019-03-22T09:51:45.869Z,29.60
2019-03-22T09:52:45.998Z,27.90
2019-03-22T09:53:46.546Z,25.80
2019-03-22T09:54:45.845Z,25.10
2019-03-22T09:55:46.062Z,29.40
2019-03-22T09:56:47.411Z,29.10
2019-03-22T09:57:45.846Z,28.60
2019-03-22T09:58:45.918Z,26.60
2019-03-22T09:59:46.641Z,26.80
2019-03-22T10:00:48.569Z,26.50
2019-03-22T10:01:45.817Z,27.10
2019-03-22T10:02:45.830Z,28.20
2019-03-22T10:03:45.800Z,26.50
2019-03-22T10:04:45.774Z,28.10
2019-03-22T10:05:45.847Z,28.70
2019-03-22T10:06:45.747Z,28.60
2019-03-22T10:07:45.732Z,25.70
2019-03-22T10:08:45.730Z,27.70
2019-03-22T10:09:45.703Z,28.60
2019-03-22T10:10:45.768Z,27.50
2019-03-22T10:11:45.714Z,26.00
2019-03-22T10:12:45.705Z,24.20
2019-03-22T10:13:48.251Z,26.30
2019-03-22T10:14:45.686Z,26.00
2019-03-22T10:15:45.670Z,25.50
2019-03-22T10:16:47.665Z,26.40
2019-03-22T10:17:45.593Z,25.80
2019-03-22T10:18:46.217Z,27.10
2019-03-22T10:19:46.624Z,25.00
2019-03-22T10:20:45.551Z,25.70
2019-03-22T10:21:45.742Z,24.60
2019-03-22T10:23:54.735Z,28.00
2019-03-22T10:24:55.742Z,27.20
2019-03-22T10:25:55.909Z,27.60
2019-03-22T10:26:55.827Z,24.90
2019-03-22T10:27:55.775Z,23.30
2019-03-22T10:28:55.678Z,24.20
2019-03-22T10:29:55.800Z,23.00
2019-03-22T10:30:55.819Z,22.40
2019-03-22T10:31:55.942Z,24.70
2019-03-22T10:32:55.720Z,22.80
2019-03-22T10:33:55.635Z,24.50
2019-03-22T10:34:55.668Z,24.20
2019-03-22T10:35:55.690Z,26.10
2019-03-22T10:36:55.650Z,25.00
2019-03-22T10:38:00.336Z,24.90
2019-03-22T10:38:55.979Z,24.20
2019-03-22T10:39:55.620Z,23.70
2019-03-22T10:40:55.709Z,25.00
2019-03-22T10:41:55.603Z,24.70
2019-03-22T10:42:55.562Z,25.60
2019-03-22T10:43:55.525Z,25.00
2019-03-22T10:44:55.613Z,26.20
2019-03-22T10:45:55.539Z,24.30
2019-03-22T10:46:55.528Z,24.10
2019-03-22T10:47:55.557Z,23.70
2019-03-22T10:48:55.536Z,24.30
2019-03-22T10:49:55.527Z,22.30
2019-03-22T10:50:55.447Z,22.90
2019-03-22T10:51:57.395Z,24.50
2019-03-22T10:52:55.453Z,23.00
2019-03-22T10:53:55.461Z,22.30
2019-03-22T10:54:55.542Z,21.70
2019-03-22T10:55:55.577Z,22.60
2019-03-22T10:56:55.376Z,20.90
2019-03-22T10:57:55.673Z,20.30
2019-03-22T10:58:55.384Z,22.10
2019-03-22T10:59:55.404Z,22.40
2019-03-22T11:00:55.348Z,20.40
2019-03-22T11:02:03.369Z,21.70
2019-03-22T11:02:55.310Z,21.80
2019-03-22T11:03:55.368Z,21.90
2019-03-22T11:04:55.318Z,22.50
2019-03-22T11:05:55.334Z,21.30
2019-03-22T11:06:55.272Z,23.20
2019-03-22T11:07:55.265Z,19.90
2019-03-22T11:08:55.252Z,21.10
2019-03-22T11:09:55.285Z,20.80
2019-03-22T11:10:55.232Z,18.90
2019-03-22T11:11:55.210Z,20.50
2019-03-22T11:12:55.210Z,19.90
2019-03-22T11:13:55.201Z,21.70
2019-03-22T11:14:55.238Z,17.90
2019-03-22T11:15:55.187Z,20.70
2019-03-22T11:16:55.193Z,19.00
2019-03-22T11:17:55.206Z,21.80
2019-03-22T11:18:55.165Z,19.70
2019-03-22T11:19:57.399Z,20.90
2019-03-22T11:21:04.469Z,19.50
2019-03-22T11:21:55.108Z,19.50
2019-03-22T11:22:55.102Z,20.10
2019-03-22T11:23:55.129Z,20.20
2019-03-22T11:24:55.089Z,20.00
2019-03-22T11:26:03.800Z,20.80
2019-03-22T11:26:55.094Z,22.20
2019-03-22T11:27:55.057Z,22.80
2019-03-22T11:28:55.055Z,20.00
2019-03-22T11:29:55.052Z,19.80
2019-03-22T11:31:01.145Z,20.90
2019-03-22T11:31:54.993Z,18.80
2019-03-22T11:32:54.980Z,17.00
2019-03-22T11:33:54.979Z,18.50
2019-03-22T11:34:54.987Z,16.00
2019-03-22T11:35:54.962Z,16.60
2019-03-22T11:36:54.954Z,16.20
2019-03-22T11:37:55.034Z,19.30
2019-03-22T11:38:54.914Z,19.10
2019-03-22T11:39:54.919Z,17.90
2019-03-22T11:40:54.890Z,18.90
2019-03-22T11:41:55.480Z,18.10
2019-03-22T11:42:54.882Z,16.70
2019-03-22T11:43:54.868Z,16.60
2019-03-22T11:44:54.865Z,14.00
2019-03-22T11:45:54.890Z,17.10
2019-03-22T11:46:54.827Z,17.00
2019-03-22T11:47:54.821Z,13.40
2019-03-22T11:48:54.799Z,14.00
2019-03-22T11:49:54.835Z,16.30
2019-03-22T11:50:54.785Z,14.90
2019-03-22T11:51:54.770Z,15.80
2019-03-22T11:52:54.773Z,13.00
2019-03-22T11:53:54.752Z,12.90
2019-03-22T11:54:54.777Z,14.50
2019-03-22T11:55:54.723Z,14.70
2019-03-22T11:56:54.719Z,11.80
2019-03-22T11:57:54.708Z,10.10
2019-03-22T11:58:54.699Z,10.70
2019-03-22T11:59:54.708Z,13.10
2019-03-22T12:00:54.711Z,13.20
2019-03-22T12:01:54.658Z,14.50
2019-03-22T12:02:54.678Z,10.90
2019-03-22T12:03:54.642Z,9.90
2019-03-22T12:04:54.650Z,11.70
2019-03-22T12:05:54.645Z,11.00
2019-03-22T12:06:54.629Z,12.10
2019-03-22T12:07:54.608Z,13.20
2019-03-22T12:08:54.602Z,10.20
2019-03-22T12:09:54.620Z,12.50
2019-03-22T12:10:54.630Z,13.10
2019-03-22T12:11:54.555Z,13.10
2019-03-22T12:12:54.561Z,13.50
2019-03-22T12:13:54.536Z,13.30
2019-03-22T12:14:54.523Z,12.80
2019-03-22T12:15:54.539Z,11.70
2019-03-22T12:16:56.633Z,11.80
2019-03-22T12:17:54.491Z,10.40
2019-03-22T12:18:54.481Z,11.20
2019-03-22T12:19:54.471Z,12.70
2019-03-22T12:20:56.544Z,11.10
2019-03-22T12:21:54.446Z,10.30
2019-03-22T12:22:54.442Z,9.90
2019-03-22T12:25:03.677Z,9.80
2019-03-22T12:26:06.437Z,9.20
2019-03-22T12:27:04.584Z,10.70
2019-03-22T12:28:04.582Z,11.20
2019-03-22T12:29:04.574Z,10.60
2019-03-22T12:30:04.640Z,9.80
2019-03-22T12:31:04.558Z,13.90
2019-03-22T12:32:04.532Z,12.90
2019-03-22T12:33:04.519Z,11.60
2019-03-22T12:34:04.506Z,10.60
2019-03-22T12:35:04.497Z,10.10
2019-03-22T12:36:04.514Z,11.50
2019-03-22T12:37:04.473Z,11.80
2019-03-22T12:38:04.470Z,11.80
2019-03-22T12:39:04.466Z,10.80
2019-03-22T12:40:04.446Z,11.40
2019-03-22T12:41:04.464Z,10.60
2019-03-22T12:42:04.424Z,9.80
2019-03-22T12:43:04.414Z,9.90
2019-03-22T12:44:04.402Z,10.10
2019-03-22T12:45:04.398Z,11.20
2019-03-22T12:46:04.442Z,10.20
2019-03-22T12:47:04.371Z,10.60
2019-03-22T12:48:04.371Z,10.50
2019-03-22T12:49:04.377Z,9.40
2019-03-22T12:50:04.336Z,9.40
2019-03-22T12:51:04.392Z,8.80
2019-03-22T12:52:04.317Z,9.60
2019-03-22T12:53:04.296Z,10.20
2019-03-22T12:54:04.286Z,11.50
2019-03-22T12:55:04.293Z,10.10
2019-03-22T12:56:04.286Z,9.50
2019-03-22T12:57:04.254Z,9.00
2019-03-22T12:58:04.245Z,8.80
2019-03-22T12:59:04.242Z,7.80